createdAt,value
2019-04-25T00:00:44.106Z,100.00
2019-04-25T00:03:17.807Z,100.00
2019-04-25T00:05:50.395Z,100.00
2019-04-25T00:08:23.408Z,100.00
2019-04-25T00:10:56.564Z,100.00
2019-04-25T00:13:29.815Z,100.00
2019-04-25T00:16:03.387Z,100.00
2019-04-25T00:18:38.521Z,100.00
2019-04-25T00:21:27.154Z,100.00
2019-04-25T00:24:05.319Z,100.00
2019-04-25T00:26:44.440Z,100.00
2019-04-25T00:29:18.774Z,100.00
2019-04-25T00:31:51.348Z,100.00
2019-04-25T00:34:23.993Z,100.00
2019-04-25T00:36:57.179Z,100.00
2019-04-25T00:39:31.811Z,99.88
2019-04-25T00:42:05.855Z,99.89
2019-04-25T00:44:38.438Z,99.79
2019-04-25T00:47:11.856Z,99.90
2019-04-25T00:49:45.185Z,99.83
2019-04-25T00:52:18.558Z,99.78
2019-04-25T00:54:52.617Z,99.79
2019-04-25T00:57:27.967Z,100.00
2019-04-25T01:00:26.647Z,100.00
2019-04-25T01:03:03.290Z,100.00
2019-04-25T01:05:36.124Z,100.00
2019-04-25T01:08:10.081Z,100.00
2019-04-25T01:10:44.408Z,100.00
2019-04-25T01:13:17.117Z,100.00
2019-04-25T01:15:54.769Z,100.00
2019-04-25T01:18:37.846Z,100.00
2019-04-25T01:21:12.072Z,100.00
2019-04-25T01:23:47.332Z,100.00
2019-04-25T01:26:23.977Z,100.00
2019-04-25T01:28:59.135Z,100.00
2019-04-25T01:31:39.373Z,100.00
2019-04-25T01:34:31.193Z,100.00
2019-04-25T01:37:14.163Z,100.00
2019-04-25T01:40:08.618Z,100.00
2019-04-25T01:43:10.528Z,100.00
2019-04-25T01:45:44.145Z,100.00
2019-04-25T01:48:16.742Z,100.00
2019-04-25T01:50:50.599Z,99.57
2019-04-25T01:53:30.275Z,99.24
2019-04-25T01:56:07.584Z,98.70
2019-04-25T01:58:43.831Z,98.41
2019-04-25T02:01:16.651Z,98.39
2019-04-25T02:03:50.419Z,98.17
2019-04-25T02:06:24.857Z,98.02
2019-04-25T02:08:59.529Z,97.96
2019-04-25T02:11:52.450Z,98.08
2019-04-25T02:14:38.079Z,98.06
2019-04-25T02:17:11.655Z,98.08
2019-04-25T02:19:44.350Z,98.46
2019-04-25T02:22:16.965Z,98.27
2019-04-25T02:24:50.176Z,97.99
2019-04-25T02:27:24.292Z,97.42
2019-04-25T02:29:57.260Z,96.93
2019-04-25T02:32:31.339Z,96.37
2019-04-25T02:35:09.149Z,95.90
2019-04-25T02:37:44.863Z,95.67
2019-04-25T02:40:23.816Z,95.54
2019-04-25T02:42:58.515Z,95.00
2019-04-25T02:45:38.566Z,94.53
2019-04-25T02:49:00.950Z,94.02
2019-04-25T02:51:45.462Z,93.66
2019-04-25T02:54:18.217Z,93.56
2019-04-25T02:56:50.691Z,93.32
2019-04-25T02:59:25.337Z,92.61
2019-04-25T03:01:59.268Z,91.87
2019-04-25T03:04:33.904Z,91.56
2019-04-25T03:07:10.666Z,91.53
2019-04-25T03:09:45.087Z,91.45
2019-04-25T03:12:29.180Z,91.34
2019-04-25T03:15:09.985Z,91.35
2019-04-25T03:17:46.103Z,91.18
2019-04-25T03:20:36.347Z,91.04
2019-04-25T03:23:35.418Z,90.67
2019-04-25T03:26:09.108Z,90.46
2019-04-25T03:28:44.555Z,90.24
2019-04-25T03:31:22.636Z,89.98
2019-04-25T03:33:58.883Z,90.12
2019-04-25T03:36:31.781Z,90.15
2019-04-25T03:39:06.678Z,90.05
2019-04-25T03:41:39.156Z,90.16
2019-04-25T03:44:14.587Z,89.96
2019-04-25T03:46:47.146Z,90.30
2019-04-25T03:49:19.684Z,90.50
2019-04-25T03:51:53.860Z,90.52
2019-04-25T03:54:26.551Z,90.26
2019-04-25T03:57:04.675Z,89.87
2019-04-25T03:59:39.132Z,89.57
2019-04-25T04:02:13.492Z,89.46
2019-04-25T04:04:48.424Z,89.55
2019-04-25T04:07:20.998Z,89.99
2019-04-25T04:09:55.079Z,89.85
2019-04-25T04:12:27.698Z,89.76
2019-04-25T04:15:00.565Z,89.49
2019-04-25T04:17:45.411Z,89.52
2019-04-25T04:20:28.388Z,89.55
2019-04-25T04:23:11.275Z,89.65
2019-04-25T04:25:44.317Z,89.85
2019-04-25T04:28:17.175Z,89.58
2019-04-25T04:30:49.799Z,89.17
2019-04-25T04:33:30.219Z,88.98
2019-04-25T04:36:05.605Z,88.91
2019-04-25T04:38:38.198Z,89.08
2019-04-25T04:41:11.561Z,89.14
2019-04-25T04:43:44.203Z,88.91
2019-04-25T04:46:18.575Z,88.77
2019-04-25T04:48:54.101Z,88.62
2019-04-25T04:51:30.098Z,88.73
2019-04-25T04:54:03.472Z,88.27
2019-04-25T04:56:37.458Z,87.94
2019-04-25T04:59:10.949Z,87.69
2019-04-25T05:01:49.202Z,87.33
2019-04-25T05:04:33.437Z,86.98
2019-04-25T05:07:36.350Z,86.39
2019-04-25T05:10:09.206Z,85.37
2019-04-25T05:12:43.761Z,84.34
2019-04-25T05:15:16.940Z,83.80
2019-04-25T05:17:50.779Z,82.51
2019-04-25T05:20:24.250Z,81.80
2019-04-25T05:22:57.802Z,81.33
2019-04-25T05:25:30.512Z,81.03
2019-04-25T05:28:05.324Z,81.30
2019-04-25T05:30:47.359Z,81.62
2019-04-25T05:33:21.560Z,81.75
2019-04-25T05:35:57.158Z,80.85
2019-04-25T05:38:34.120Z,80.40
2019-04-25T05:41:24.140Z,78.84
2019-04-25T05:43:58.078Z,78.47
2019-04-25T05:46:34.146Z,77.89
2019-04-25T05:49:06.782Z,76.80
2019-04-25T05:51:39.274Z,75.68
2019-04-25T05:54:12.025Z,75.01
2019-04-25T05:56:44.634Z,74.52
2019-04-25T05:59:17.937Z,73.76
2019-04-25T06:01:50.647Z,73.46
2019-04-25T06:04:25.066Z,72.93
2019-04-25T06:06:59.963Z,72.65
2019-04-25T06:09:54.512Z,71.67
2019-04-25T06:12:47.954Z,70.41
2019-04-25T06:15:26.172Z,70.04
2019-04-25T06:18:19.739Z,69.31
2019-04-25T06:20:55.409Z,68.06
2019-04-25T06:23:34.121Z,67.60
2019-04-25T06:26:19.032Z,66.65
2019-04-25T06:29:20.515Z,66.01
2019-04-25T06:32:04.185Z,65.87
2019-04-25T06:34:41.691Z,65.86
2019-04-25T06:37:16.038Z,66.18
2019-04-25T06:39:48.946Z,65.88
2019-04-25T06:42:21.396Z,64.96
2019-04-25T06:45:13.619Z,65.03
2019-04-25T06:47:57.760Z,64.55
2019-04-25T06:50:30.323Z,63.64
2019-04-25T06:53:05.140Z,63.57
2019-04-25T06:55:39.587Z,62.51
2019-04-25T06:58:14.639Z,63.00
2019-04-25T07:00:58.097Z,62.57
2019-04-25T07:03:35.304Z,62.29
2019-04-25T07:06:09.641Z,61.52
2019-04-25T07:08:48.350Z,61.43
2019-04-25T07:11:21.022Z,60.94
2019-04-25T07:13:55.043Z,60.39
2019-04-25T07:16:27.819Z,60.00
2019-04-25T07:19:04.432Z,59.94
2019-04-25T07:21:44.370Z,59.49
2019-04-25T07:24:18.028Z,58.60
2019-04-25T07:27:16.217Z,58.94
2019-04-25T13:51:07.023Z,30.93
2019-04-25T13:53:43.666Z,31.20
2019-04-25T13:56:23.176Z,30.91
2019-04-25T13:58:59.013Z,30.69
2019-04-25T14:01:35.000Z,30.35
2019-04-25T14:04:08.516Z,31.01
2019-04-25T14:06:42.597Z,30.70
2019-04-25T14:09:17.715Z,30.11
2019-04-25T14:11:51.196Z,29.91
2019-04-25T14:14:26.580Z,29.25
2019-04-25T14:17:24.771Z,28.86
2019-04-25T14:20:21.736Z,28.90
2019-04-25T14:23:08.832Z,28.51
2019-04-25T14:25:46.982Z,28.84
2019-04-25T14:28:24.934Z,28.37
2019-04-25T14:31:01.828Z,28.47
2019-04-25T14:33:35.676Z,28.15
2019-04-25T14:36:10.702Z,28.82
2019-04-25T14:38:45.187Z,29.46
2019-04-25T14:41:18.930Z,30.08
2019-04-25T14:43:52.550Z,30.20
2019-04-25T14:46:26.429Z,31.36
2019-04-25T14:49:00.502Z,32.25
2019-04-25T14:51:33.647Z,32.42
2019-04-25T14:54:18.279Z,33.11
2019-04-25T14:57:03.396Z,33.48
2019-04-25T14:59:37.540Z,33.58
2019-04-25T15:02:11.174Z,33.98
2019-04-25T15:04:44.844Z,34.03
2019-04-25T15:07:17.644Z,34.49
2019-04-25T15:09:53.978Z,34.60
2019-04-25T15:12:26.926Z,34.71
2019-04-25T15:14:59.777Z,34.53
2019-04-25T15:17:45.407Z,33.99
2019-04-25T15:20:19.791Z,34.39
2019-04-25T15:22:57.573Z,34.34
2019-04-25T15:25:32.887Z,34.05
2019-04-25T15:28:12.032Z,34.34
2019-04-25T15:30:46.386Z,35.39
2019-04-25T15:33:19.805Z,35.76
2019-04-25T15:36:08.808Z,36.71
2019-04-25T15:38:52.439Z,37.01
2019-04-25T15:41:34.732Z,36.95
2019-04-25T15:44:27.925Z,37.45
2019-04-25T15:47:05.721Z,38.25
2019-04-25T15:49:39.285Z,38.49
2019-04-25T15:52:15.263Z,38.41
2019-04-25T15:54:49.518Z,38.28
2019-04-25T15:57:25.460Z,38.31
2019-04-25T15:59:58.722Z,38.36
2019-04-25T16:02:35.491Z,38.45
2019-04-25T16:05:09.564Z,38.89
2019-04-25T16:07:48.664Z,39.33
2019-04-25T16:10:24.926Z,39.10
2019-04-25T16:13:01.333Z,39.36
2019-04-25T16:15:34.027Z,39.63
2019-04-25T16:18:13.631Z,39.48
2019-04-25T16:20:47.793Z,39.73
2019-04-25T16:23:20.781Z,39.88
2019-04-25T16:25:53.795Z,40.18
2019-04-25T16:28:29.521Z,39.95
2019-04-25T16:31:05.126Z,39.97
2019-04-25T16:33:40.711Z,40.17
2019-04-25T16:36:19.870Z,40.69
2019-04-25T16:38:56.127Z,40.81
2019-04-25T16:41:31.523Z,41.24
2019-04-25T16:44:13.582Z,41.87
2019-04-25T16:46:46.235Z,41.86
2019-04-25T16:49:19.782Z,41.82
2019-04-25T16:51:54.275Z,42.65
2019-04-25T16:54:31.539Z,43.37
2019-04-25T16:57:05.002Z,42.02
2019-04-25T16:59:38.800Z,40.33
2019-04-25T17:02:12.963Z,40.63
2019-04-25T17:04:45.887Z,40.67
2019-04-25T17:07:20.243Z,40.44
2019-04-25T17:09:56.836Z,40.19
2019-04-25T17:12:34.359Z,39.94
2019-04-25T17:15:30.503Z,40.37
2019-04-25T17:18:14.745Z,41.22
2019-04-25T17:20:58.963Z,41.12
2019-04-25T17:23:34.482Z,41.70
2019-04-25T17:26:08.560Z,41.97
2019-04-25T17:28:46.052Z,42.50
2019-04-25T17:31:25.603Z,42.78
2019-04-25T17:34:18.644Z,43.61
2019-04-25T17:37:19.174Z,44.01
2019-04-25T17:40:11.893Z,44.36
2019-04-25T17:42:46.731Z,44.63
2019-04-25T17:45:28.451Z,44.66
2019-04-25T17:48:04.421Z,45.42
2019-04-25T17:50:37.531Z,46.03
2019-04-25T17:53:14.005Z,46.76
2019-04-25T17:55:47.316Z,47.60
2019-04-25T17:58:20.961Z,48.24
2019-04-25T18:00:55.718Z,48.63
2019-04-25T18:03:31.399Z,48.89
2019-04-25T18:06:07.689Z,49.46
2019-04-25T18:08:46.867Z,49.72
2019-04-25T18:11:22.986Z,50.33
2019-04-25T18:13:55.702Z,50.93
2019-04-25T18:16:40.354Z,51.38
2019-04-25T18:19:35.102Z,52.00
2019-04-25T18:22:35.280Z,52.87
2019-04-25T18:25:41.428Z,53.91
2019-04-25T18:28:23.896Z,54.29
2019-04-25T18:31:00.604Z,54.57
2019-04-25T18:33:33.167Z,54.98
2019-04-25T18:36:19.595Z,55.22
2019-04-25T18:39:07.951Z,53.62
2019-04-25T18:41:46.820Z,53.32
2019-04-25T18:44:22.058Z,53.04
2019-04-25T18:46:58.200Z,53.75
2019-04-25T18:49:37.209Z,54.18
2019-04-25T18:52:48.791Z,55.12
2019-04-25T18:55:33.407Z,56.41
2019-04-25T18:58:36.541Z,56.79
2019-04-25T19:01:25.949Z,57.18
2019-04-25T19:04:21.845Z,57.86
2019-04-25T19:07:21.925Z,58.64
2019-04-25T19:09:57.085Z,61.00
2019-04-25T19:12:31.366Z,61.88
2019-04-25T19:15:05.856Z,63.35
2019-04-25T19:17:41.338Z,65.47
2019-04-25T19:20:15.792Z,67.91
2019-04-25T19:22:49.037Z,70.25
2019-04-25T19:25:40.136Z,73.75
2019-04-25T19:28:16.065Z,75.21
2019-04-25T19:30:51.651Z,77.57
2019-04-25T19:33:35.469Z,78.54
2019-04-25T19:36:09.187Z,79.86
2019-04-25T19:38:41.996Z,80.70
2019-04-25T19:41:26.200Z,82.08
2019-04-25T19:44:04.492Z,83.27
2019-04-25T19:46:49.263Z,84.15
2019-04-25T19:49:23.344Z,84.65
2019-04-25T19:51:56.475Z,84.92
2019-04-25T19:54:31.918Z,85.23
2019-04-25T19:57:05.426Z,85.38
2019-04-25T19:59:40.690Z,85.35
2019-04-25T20:02:29.313Z,85.27
2019-04-25T20:05:12.744Z,85.96
2019-04-25T20:07:53.442Z,86.36
2019-04-25T20:10:40.732Z,86.49
2019-04-25T20:13:26.501Z,87.14
2019-04-25T20:16:01.210Z,87.94
2019-04-25T20:18:33.975Z,88.42
2019-04-25T20:21:10.247Z,88.59
2019-04-25T20:23:46.343Z,89.11
2019-04-25T20:26:20.665Z,89.71
2019-04-25T20:28:59.253Z,90.21
2019-04-25T20:31:33.970Z,90.41
2019-04-25T20:34:09.375Z,90.63
2019-04-25T20:36:43.356Z,90.98
2019-04-25T20:39:15.822Z,91.19
2019-04-25T20:41:49.752Z,91.65
2019-04-25T20:44:25.387Z,92.28
2019-04-25T20:46:58.693Z,92.99
2019-04-25T20:49:31.350Z,93.75
2019-04-25T20:52:05.898Z,93.98
2019-04-25T20:54:39.722Z,94.40
2019-04-25T20:57:12.326Z,94.82
2019-04-25T20:59:48.072Z,95.17
2019-04-25T21:02:25.228Z,95.43
2019-04-25T21:04:59.500Z,95.54
2019-04-25T21:07:33.424Z,95.10
2019-04-25T21:10:06.554Z,94.82
2019-04-25T21:12:50.217Z,94.67
2019-04-25T21:15:36.579Z,94.42
2019-04-25T21:18:17.555Z,94.13
2019-04-25T21:20:50.668Z,93.91
2019-04-25T21:23:25.382Z,93.80
2019-04-25T21:26:01.250Z,93.53
2019-04-25T21:28:35.368Z,93.62
2019-04-25T21:31:08.275Z,94.00
2019-04-25T21:33:45.747Z,94.38
2019-04-25T21:36:25.367Z,94.61
2019-04-25T21:39:02.158Z,94.87
2019-04-25T21:41:53.655Z,94.87
2019-04-25T21:44:27.791Z,94.70
2019-04-25T21:47:01.453Z,94.56
2019-04-25T21:49:35.094Z,94.59
2019-04-25T21:52:08.459Z,94.76
2019-04-25T21:54:48.684Z,94.97
2019-04-25T21:57:21.539Z,94.65
2019-04-25T22:00:03.149Z,94.03
2019-04-25T22:02:42.436Z,93.53
2019-04-25T22:05:16.390Z,93.35
2019-04-25T22:07:49.538Z,93.39
2019-04-25T22:10:24.456Z,93.42
2019-04-25T22:13:11.270Z,93.30
2019-04-25T22:15:52.679Z,93.30
2019-04-25T22:18:25.651Z,93.52
2019-04-25T22:20:58.558Z,93.86
2019-04-25T22:23:31.451Z,93.82
2019-04-25T22:26:13.700Z,93.90
2019-04-25T22:28:46.917Z,94.09
2019-04-25T22:31:27.087Z,94.23
2019-04-25T22:34:05.806Z,94.40
2019-04-25T22:36:38.795Z,94.71
2019-04-25T22:39:11.646Z,94.51
2019-04-25T22:41:47.201Z,94.32
2019-04-25T22:44:22.755Z,94.22
2019-04-25T22:46:55.916Z,94.12
2019-04-25T22:49:29.082Z,94.09
2019-04-25T22:52:03.114Z,94.43
2019-04-25T22:54:37.508Z,94.62
2019-04-25T22:57:15.261Z,94.98
2019-04-25T22:59:48.151Z,95.36
2019-04-25T23:02:42.644Z,95.37
2019-04-25T23:05:19.458Z,95.23
2019-04-25T23:07:52.873Z,95.38
2019-04-25T23:10:25.897Z,95.61
2019-04-25T23:12:58.534Z,95.91
2019-04-25T23:15:31.123Z,96.23
2019-04-25T23:18:05.372Z,96.83
2019-04-25T23:20:38.665Z,96.78
2019-04-25T23:23:11.775Z,97.05
2019-04-25T23:25:50.471Z,97.30
2019-04-25T23:28:25.701Z,97.44
2019-04-25T23:31:10.486Z,97.94
2019-04-25T23:33:43.413Z,98.22
2019-04-25T23:36:16.433Z,98.32
2019-04-25T23:38:51.727Z,98.55
2019-04-25T23:41:24.423Z,98.90
2019-04-25T23:43:57.087Z,99.15
2019-04-25T23:46:30.115Z,99.34
2019-04-25T23:49:03.531Z,99.54
2019-04-25T23:51:36.169Z,99.64
2019-04-25T23:54:09.562Z,99.88
2019-04-25T23:56:42.149Z,100.00
2019-04-25T23:59:15.703Z,100.00
